createdAt,value
2019-04-22T00:03:39.008Z,5.43
2019-04-22T00:09:04.053Z,5.83
2019-04-22T00:14:10.335Z,5.70
2019-04-22T00:19:26.879Z,5.07
2019-04-22T00:24:20.469Z,5.63
2019-04-22T00:29:42.628Z,5.03
2019-04-22T00:34:27.024Z,5.10
2019-04-22T00:39:41.138Z,5.13
2019-04-22T00:44:48.934Z,5.20
2019-04-22T00:54:59.443Z,5.53
2019-04-22T01:00:00.331Z,5.40
2019-04-22T01:05:09.311Z,5.23
2019-04-22T01:10:11.728Z,4.60
2019-04-22T01:15:23.371Z,5.13
2019-04-22T01:20:52.812Z,4.80
2019-04-22T01:25:24.442Z,4.60
2019-04-22T01:30:24.455Z,4.87
2019-04-22T01:35:28.675Z,4.80
2019-04-22T01:40:57.729Z,5.20
2019-04-22T01:45:56.096Z,5.47
2019-04-22T01:50:54.899Z,5.90
2019-04-22T01:56:05.448Z,5.57
2019-04-22T02:01:04.630Z,5.50
2019-04-22T02:06:17.974Z,5.20
2019-04-22T02:11:26.431Z,4.83
2019-04-22T02:16:30.702Z,4.57
2019-04-22T02:21:31.912Z,4.60
2019-04-22T02:26:51.945Z,4.93
2019-04-22T02:36:50.482Z,4.93
2019-04-22T02:42:08.709Z,5.50
2019-04-22T02:52:19.983Z,5.30
2019-04-22T02:57:30.110Z,5.77
2019-04-22T03:02:29.136Z,5.10
2019-04-22T03:07:23.529Z,5.57
2019-04-22T03:12:29.074Z,5.50
2019-04-22T03:17:38.286Z,5.47
2019-04-22T03:22:47.546Z,5.10
2019-04-22T03:27:46.409Z,5.63
2019-04-22T03:33:19.254Z,5.00
2019-04-22T03:48:08.028Z,5.30
2019-04-22T03:58:21.079Z,4.70
2019-04-22T04:03:29.016Z,4.67
2019-04-22T04:08:33.036Z,4.30
2019-04-22T04:13:41.203Z,4.20
2019-04-22T04:19:07.204Z,4.20
2019-04-22T04:24:25.837Z,4.33
2019-04-22T04:29:06.340Z,4.37
2019-04-22T04:34:03.328Z,4.57
2019-04-22T04:39:05.617Z,4.60
2019-04-22T04:54:31.206Z,5.10
2019-04-22T04:59:55.275Z,4.77
2019-04-22T05:04:51.233Z,4.10
2019-04-22T05:09:47.324Z,4.57
2019-04-22T05:14:46.832Z,4.50
2019-04-22T05:19:49.923Z,4.47
2019-04-22T05:24:58.228Z,4.33
2019-04-22T05:35:06.518Z,3.63
2019-04-22T05:40:18.666Z,4.53
2019-04-22T05:45:17.399Z,4.23
2019-04-22T05:50:21.831Z,4.17
2019-04-22T05:55:30.311Z,4.00
2019-04-22T06:00:59.502Z,4.27
2019-04-22T06:05:34.335Z,4.17
2019-04-22T06:10:48.707Z,4.77
2019-04-22T06:15:49.680Z,3.93
2019-04-22T06:21:08.909Z,3.87
2019-04-22T06:26:13.603Z,4.30
2019-04-22T06:31:11.118Z,4.20
2019-04-22T06:36:15.589Z,4.00
2019-04-22T06:41:25.284Z,4.67
2019-04-22T06:46:29.998Z,4.17
2019-04-22T06:51:32.723Z,4.70
2019-04-22T06:56:38.805Z,4.37
2019-04-22T07:01:59.308Z,4.17
2019-04-22T07:06:48.327Z,4.33
2019-04-22T07:11:53.053Z,4.10
2019-04-22T07:16:57.496Z,4.17
2019-04-22T07:22:03.427Z,4.43
2019-04-22T07:32:15.130Z,4.40
2019-04-22T07:37:31.727Z,3.30
2019-04-22T07:42:24.479Z,3.00
2019-04-22T07:47:45.457Z,4.07
2019-04-22T07:52:35.150Z,4.00
2019-04-22T07:57:41.309Z,4.00
2019-04-22T08:07:52.442Z,3.30
2019-04-22T08:13:01.742Z,3.20
2019-04-22T08:18:04.967Z,2.50
2019-04-22T08:23:09.070Z,2.90
2019-04-22T08:28:20.366Z,2.97
2019-04-22T08:33:21.754Z,3.20
2019-04-22T08:38:34.145Z,3.73
2019-04-22T08:43:37.942Z,3.07
2019-04-22T08:48:42.452Z,2.90
2019-04-22T08:53:48.158Z,2.90
2019-04-22T08:58:50.779Z,3.35
2019-04-22T09:03:52.388Z,2.87
2019-04-22T09:09:01.979Z,2.37
2019-04-22T09:14:04.191Z,2.62
2019-04-22T09:24:29.661Z,2.00
2019-04-22T09:34:28.206Z,1.98
2019-04-22T09:39:34.205Z,1.62
2019-04-22T09:44:44.966Z,1.77
2019-04-22T09:49:51.939Z,2.17
2019-04-22T09:54:59.650Z,1.80
2019-04-22T10:10:09.449Z,2.22
2019-04-22T10:15:11.684Z,1.87
2019-04-22T10:20:24.847Z,1.90
2019-04-22T10:25:28.000Z,1.92
2019-04-22T10:30:41.233Z,1.70
2019-04-22T10:35:18.290Z,1.80
2019-04-22T10:40:23.719Z,1.65
2019-04-22T10:45:28.197Z,1.77
2019-04-22T10:50:43.186Z,1.70
2019-04-22T10:55:49.821Z,1.80
2019-04-22T11:00:55.844Z,1.30
2019-04-22T11:06:01.142Z,1.30
2019-04-22T11:11:26.007Z,1.25
2019-04-22T11:28:05.517Z,1.00
2019-04-22T11:33:16.353Z,1.10
2019-04-22T11:38:20.786Z,1.50
2019-04-22T11:43:26.046Z,1.15
2019-04-22T11:48:33.976Z,1.15
2019-04-22T11:53:54.865Z,1.10
2019-04-22T11:59:00.615Z,1.50
2019-04-22T12:04:04.780Z,1.25
2019-04-22T12:09:12.127Z,1.10
2019-04-22T12:14:15.962Z,1.10
2019-04-22T12:19:20.908Z,1.30
2019-04-22T12:24:25.080Z,1.17
2019-04-22T12:29:29.205Z,1.10
2019-04-22T12:34:33.438Z,1.02
2019-04-22T12:39:39.152Z,1.07
2019-04-22T12:44:44.120Z,1.05
2019-04-22T12:49:56.111Z,1.10
2019-04-22T12:54:55.168Z,0.90
2019-04-22T12:59:59.599Z,1.15
2019-04-22T13:05:03.899Z,0.90
2019-04-22T13:10:10.140Z,1.00
2019-04-22T13:15:15.893Z,1.00
2019-04-22T13:20:21.921Z,1.10
2019-04-22T13:25:28.279Z,1.20
2019-04-22T13:30:32.567Z,1.40
2019-04-22T13:35:36.410Z,1.30
2019-04-22T13:40:55.836Z,1.20
2019-04-22T13:45:45.770Z,0.98
2019-04-22T13:51:24.357Z,0.93
2019-04-22T13:56:15.549Z,1.10
2019-04-22T14:01:06.832Z,1.00
2019-04-22T14:06:10.971Z,1.30
2019-04-22T14:11:25.318Z,1.07
2019-04-22T14:16:20.272Z,0.93
2019-04-22T14:21:24.931Z,0.93
2019-04-22T14:26:47.931Z,1.05
2019-04-22T14:31:34.159Z,1.47
2019-04-22T14:36:39.010Z,1.20
2019-04-22T14:41:57.686Z,0.90
2019-04-22T14:47:15.582Z,1.00
2019-04-22T14:52:17.733Z,1.32
2019-04-22T14:57:01.041Z,1.17
2019-04-22T15:02:05.697Z,1.32
2019-04-22T15:07:10.729Z,1.30
2019-04-22T15:36:22.247Z,1.75
2019-04-22T17:30:06.454Z,2.00
2019-04-22T17:35:13.364Z,2.10
2019-04-22T17:54:41.857Z,2.30
2019-04-22T18:05:53.237Z,2.67
2019-04-22T18:11:33.471Z,2.90
2019-04-22T18:17:11.521Z,2.27
2019-04-22T18:22:19.744Z,3.40
2019-04-22T18:33:54.483Z,2.87
2019-04-22T18:39:43.141Z,2.80
2019-04-22T18:58:22.752Z,3.77
2019-04-22T19:24:04.310Z,4.27
2019-04-22T19:55:43.702Z,4.83
2019-04-22T20:08:59.614Z,4.80
2019-04-22T20:21:11.842Z,5.50
2019-04-22T20:38:59.391Z,5.60
2019-04-22T21:13:48.033Z,7.97
2019-04-22T21:18:57.834Z,6.17
2019-04-22T21:23:56.905Z,8.13
2019-04-22T21:29:11.864Z,6.17
2019-04-22T21:34:13.033Z,5.93
2019-04-22T21:39:17.480Z,4.90
2019-04-22T21:44:26.912Z,5.93
2019-04-22T21:49:29.719Z,5.37
2019-04-22T21:54:36.589Z,5.20
2019-04-22T21:59:42.651Z,5.30
2019-04-22T22:04:44.292Z,5.67
2019-04-22T22:09:53.812Z,5.23
2019-04-22T22:15:00.373Z,5.50
2019-04-22T22:19:57.954Z,5.30
2019-04-22T22:25:11.087Z,5.00
2019-04-22T22:35:20.597Z,5.00
2019-04-22T22:40:11.810Z,4.67
2019-04-22T22:45:22.429Z,5.30
2019-04-22T22:50:37.790Z,5.10
2019-04-22T22:55:46.332Z,4.73
2019-04-22T23:00:44.081Z,4.93
2019-04-22T23:05:58.760Z,4.83
2019-04-22T23:11:20.823Z,5.00
2019-04-22T23:15:58.386Z,4.80
2019-04-22T23:20:52.202Z,5.07
2019-04-22T23:26:32.221Z,5.10
2019-04-22T23:31:36.830Z,5.13
2019-04-22T23:36:59.020Z,5.03
2019-04-22T23:42:13.119Z,4.93
2019-04-22T23:47:10.964Z,4.80
2019-04-22T23:52:23.861Z,4.90
2019-04-22T23:57:33.202Z,5.10
